sensor_id;sensor_type;location;lat;lon;timestamp;P1;durP1;ratioP1;P2;durP2;ratioP2
21905;SDS011;11117;48.644;9.006;2024-02-28T00:01:31;42.53;;;22.27;;
21905;SDS011;11117;48.644;9.006;2024-02-28T00:03:58;40.93;;;22.37;;
21905;SDS011;11117;48.644;9.006;2024-02-28T00:06:23;42.20;;;22.20;;
21905;SDS011;11117;48.644;9.006;2024-02-28T00:08:49;42.63;;;23.07;;
21905;SDS011;11117;48.644;9.006;2024-02-28T00:11:14;39.73;;;21.33;;
21905;SDS011;11117;48.644;9.006;2024-02-28T00:13:40;38.47;;;22.47;;
21905;SDS011;11117;48.644;9.006;2024-02-28T00:16:06;39.33;;;21.73;;
21905;SDS011;11117;48.644;9.006;2024-02-28T00:18:31;38.17;;;21.63;;
21905;SDS011;11117;48.644;9.006;2024-02-28T00:20:57;38.40;;;21.33;;
21905;SDS011;11117;48.644;9.006;2024-02-28T00:23:22;42.40;;;23.07;;
21905;SDS011;11117;48.644;9.006;2024-02-28T00:25:48;42.47;;;23.10;;
21905;SDS011;11117;48.644;9.006;2024-02-28T00:28:13;40.77;;;22.87;;
21905;SDS011;11117;48.644;9.006;2024-02-28T00:30:39;42.70;;;21.87;;
21905;SDS011;11117;48.644;9.006;2024-02-28T00:33:04;42.97;;;22.97;;
21905;SDS011;11117;48.644;9.006;2024-02-28T00:35:31;43.03;;;23.50;;
21905;SDS011;11117;48.644;9.006;2024-02-28T00:37:57;45.10;;;22.83;;
21905;SDS011;11117;48.644;9.006;2024-02-28T00:40:23;41.47;;;24.40;;
21905;SDS011;11117;48.644;9.006;2024-02-28T00:42:49;42.03;;;23.20;;
21905;SDS011;11117;48.644;9.006;2024-02-28T00:45:14;40.37;;;22.80;;
21905;SDS011;11117;48.644;9.006;2024-02-28T00:47:40;44.07;;;24.17;;
21905;SDS011;11117;48.644;9.006;2024-02-28T00:50:05;41.57;;;23.43;;
21905;SDS011;11117;48.644;9.006;2024-02-28T00:52:31;44.57;;;24.67;;
21905;SDS011;11117;48.644;9.006;2024-02-28T00:54:57;43.30;;;23.27;;
21905;SDS011;11117;48.644;9.006;2024-02-28T00:57:22;40.60;;;22.50;;
21905;SDS011;11117;48.644;9.006;2024-02-28T00:59:48;44.20;;;24.57;;
21905;SDS011;11117;48.644;9.006;2024-02-28T01:02:13;40.97;;;22.43;;
21905;SDS011;11117;48.644;9.006;2024-02-28T01:04:39;44.23;;;22.87;;
21905;SDS011;11117;48.644;9.006;2024-02-28T01:07:06;47.30;;;24.43;;
21905;SDS011;11117;48.644;9.006;2024-02-28T01:09:32;45.73;;;24.80;;
21905;SDS011;11117;48.644;9.006;2024-02-28T01:11:57;41.23;;;23.33;;
21905;SDS011;11117;48.644;9.006;2024-02-28T01:14:23;47.37;;;23.57;;
21905;SDS011;11117;48.644;9.006;2024-02-28T01:16:49;43.53;;;24.10;;
21905;SDS011;11117;48.644;9.006;2024-02-28T01:19:15;46.27;;;24.27;;
21905;SDS011;11117;48.644;9.006;2024-02-28T01:21:41;44.77;;;24.80;;
21905;SDS011;11117;48.644;9.006;2024-02-28T01:24:07;44.13;;;24.60;;
21905;SDS011;11117;48.644;9.006;2024-02-28T01:26:32;46.73;;;24.13;;
21905;SDS011;11117;48.644;9.006;2024-02-28T01:28:58;44.40;;;24.23;;
21905;SDS011;11117;48.644;9.006;2024-02-28T01:31:23;43.03;;;24.40;;
21905;SDS011;11117;48.644;9.006;2024-02-28T01:33:49;46.53;;;25.17;;
21905;SDS011;11117;48.644;9.006;2024-02-28T01:36:15;47.20;;;24.57;;
21905;SDS011;11117;48.644;9.006;2024-02-28T01:38:40;47.37;;;24.30;;
21905;SDS011;11117;48.644;9.006;2024-02-28T01:41:06;41.60;;;23.70;;
21905;SDS011;11117;48.644;9.006;2024-02-28T01:43:31;44.07;;;24.67;;
21905;SDS011;11117;48.644;9.006;2024-02-28T01:45:59;46.07;;;25.00;;
21905;SDS011;11117;48.644;9.006;2024-02-28T01:48:28;45.93;;;24.40;;
21905;SDS011;11117;48.644;9.006;2024-02-28T01:50:54;43.70;;;23.97;;
21905;SDS011;11117;48.644;9.006;2024-02-28T01:53:19;45.07;;;24.60;;
21905;SDS011;11117;48.644;9.006;2024-02-28T01:55:45;45.50;;;24.03;;
21905;SDS011;11117;48.644;9.006;2024-02-28T01:58:12;44.77;;;23.77;;
21905;SDS011;11117;48.644;9.006;2024-02-28T02:00:37;46.27;;;24.67;;
21905;SDS011;11117;48.644;9.006;2024-02-28T02:03:04;45.97;;;23.67;;
21905;SDS011;11117;48.644;9.006;2024-02-28T02:05:30;46.47;;;24.47;;
21905;SDS011;11117;48.644;9.006;2024-02-28T02:07:58;40.80;;;23.50;;
21905;SDS011;11117;48.644;9.006;2024-02-28T02:10:25;46.83;;;24.27;;
21905;SDS011;11117;48.644;9.006;2024-02-28T02:12:51;48.37;;;25.13;;
21905;SDS011;11117;48.644;9.006;2024-02-28T02:15:16;49.13;;;25.23;;
21905;SDS011;11117;48.644;9.006;2024-02-28T02:17:42;45.73;;;25.30;;
21905;SDS011;11117;48.644;9.006;2024-02-28T02:20:09;44.57;;;24.07;;
21905;SDS011;11117;48.644;9.006;2024-02-28T02:22:37;48.07;;;26.07;;
21905;SDS011;11117;48.644;9.006;2024-02-28T02:25:03;46.97;;;24.83;;
21905;SDS011;11117;48.644;9.006;2024-02-28T02:27:29;46.13;;;25.17;;
21905;SDS011;11117;48.644;9.006;2024-02-28T02:29:54;46.00;;;25.07;;
21905;SDS011;11117;48.644;9.006;2024-02-28T02:32:20;47.43;;;25.53;;
21905;SDS011;11117;48.644;9.006;2024-02-28T02:34:46;45.23;;;23.87;;
21905;SDS011;11117;48.644;9.006;2024-02-28T02:37:11;47.67;;;24.63;;
21905;SDS011;11117;48.644;9.006;2024-02-28T02:39:37;45.90;;;24.43;;
21905;SDS011;11117;48.644;9.006;2024-02-28T02:42:02;51.50;;;24.83;;
21905;SDS011;11117;48.644;9.006;2024-02-28T02:44:28;41.20;;;23.93;;
21905;SDS011;11117;48.644;9.006;2024-02-28T02:46:53;46.97;;;24.83;;
21905;SDS011;11117;48.644;9.006;2024-02-28T02:49:19;44.00;;;24.10;;
21905;SDS011;11117;48.644;9.006;2024-02-28T02:51:45;44.43;;;23.93;;
21905;SDS011;11117;48.644;9.006;2024-02-28T02:54:10;48.93;;;23.87;;
21905;SDS011;11117;48.644;9.006;2024-02-28T02:56:36;43.10;;;23.33;;
21905;SDS011;11117;48.644;9.006;2024-02-28T02:59:02;44.67;;;24.07;;
21905;SDS011;11117;48.644;9.006;2024-02-28T03:01:27;43.30;;;24.10;;
21905;SDS011;11117;48.644;9.006;2024-02-28T03:03:53;47.07;;;23.93;;
21905;SDS011;11117;48.644;9.006;2024-02-28T03:06:18;44.83;;;24.27;;
21905;SDS011;11117;48.644;9.006;2024-02-28T03:08:44;43.90;;;23.90;;
21905;SDS011;11117;48.644;9.006;2024-02-28T03:11:10;44.53;;;24.10;;
21905;SDS011;11117;48.644;9.006;2024-02-28T03:13:35;47.70;;;23.37;;
21905;SDS011;11117;48.644;9.006;2024-02-28T03:16:03;46.27;;;23.63;;
21905;SDS011;11117;48.644;9.006;2024-02-28T03:18:29;47.53;;;23.67;;
21905;SDS011;11117;48.644;9.006;2024-02-28T03:20:54;47.33;;;24.63;;
21905;SDS011;11117;48.644;9.006;2024-02-28T03:23:21;43.17;;;23.23;;
21905;SDS011;11117;48.644;9.006;2024-02-28T03:25:46;43.70;;;23.37;;
21905;SDS011;11117;48.644;9.006;2024-02-28T03:28:12;41.90;;;23.87;;
21905;SDS011;11117;48.644;9.006;2024-02-28T03:30:37;44.33;;;22.63;;
21905;SDS011;11117;48.644;9.006;2024-02-28T03:33:03;43.73;;;22.57;;
21905;SDS011;11117;48.644;9.006;2024-02-28T03:35:29;43.67;;;23.43;;
21905;SDS011;11117;48.644;9.006;2024-02-28T03:37:54;41.67;;;22.03;;
21905;SDS011;11117;48.644;9.006;2024-02-28T03:40:20;41.73;;;23.17;;
21905;SDS011;11117;48.644;9.006;2024-02-28T03:42:45;43.50;;;23.47;;
21905;SDS011;11117;48.644;9.006;2024-02-28T03:45:11;43.10;;;23.30;;
21905;SDS011;11117;48.644;9.006;2024-02-28T03:47:36;44.40;;;23.20;;
21905;SDS011;11117;48.644;9.006;2024-02-28T03:50:02;42.07;;;23.33;;
21905;SDS011;11117;48.644;9.006;2024-02-28T03:52:28;42.57;;;23.20;;
21905;SDS011;11117;48.644;9.006;2024-02-28T03:54:53;45.83;;;22.87;;
21905;SDS011;11117;48.644;9.006;2024-02-28T03:57:19;41.63;;;22.87;;
21905;SDS011;11117;48.644;9.006;2024-02-28T03:59:44;42.40;;;22.73;;
21905;SDS011;11117;48.644;9.006;2024-02-28T04:02:10;43.83;;;23.23;;
21905;SDS011;11117;48.644;9.006;2024-02-28T04:04:35;44.10;;;23.33;;
21905;SDS011;11117;48.644;9.006;2024-02-28T04:07:01;42.10;;;22.73;;
21905;SDS011;11117;48.644;9.006;2024-02-28T04:09:26;44.60;;;24.03;;
21905;SDS011;11117;48.644;9.006;2024-02-28T04:11:52;46.60;;;24.83;;
21905;SDS011;11117;48.644;9.006;2024-02-28T04:14:18;45.93;;;24.70;;
21905;SDS011;11117;48.644;9.006;2024-02-28T04:16:43;44.80;;;24.40;;
21905;SDS011;11117;48.644;9.006;2024-02-28T04:19:09;46.30;;;23.87;;
21905;SDS011;11117;48.644;9.006;2024-02-28T04:21:36;49.00;;;25.47;;
21905;SDS011;11117;48.644;9.006;2024-02-28T04:24:02;44.07;;;23.63;;
21905;SDS011;11117;48.644;9.006;2024-02-28T04:26:29;41.07;;;23.43;;
21905;SDS011;11117;48.644;9.006;2024-02-28T04:28:54;42.67;;;23.77;;
21905;SDS011;11117;48.644;9.006;2024-02-28T04:31:20;46.43;;;25.27;;
21905;SDS011;11117;48.644;9.006;2024-02-28T04:33:45;39.30;;;20.10;;
21905;SDS011;11117;48.644;9.006;2024-02-28T04:36:11;44.80;;;24.00;;
21905;SDS011;11117;48.644;9.006;2024-02-28T04:38:36;45.30;;;23.73;;
21905;SDS011;11117;48.644;9.006;2024-02-28T04:41:02;40.83;;;22.30;;
21905;SDS011;11117;48.644;9.006;2024-02-28T04:43:28;48.97;;;24.70;;
21905;SDS011;11117;48.644;9.006;2024-02-28T04:45:53;46.03;;;24.20;;
21905;SDS011;11117;48.644;9.006;2024-02-28T04:48:19;51.53;;;24.87;;
21905;SDS011;11117;48.644;9.006;2024-02-28T04:50:45;47.17;;;23.73;;
21905;SDS011;11117;48.644;9.006;2024-02-28T04:53:10;43.17;;;24.47;;
21905;SDS011;11117;48.644;9.006;2024-02-28T04:55:36;47.30;;;24.67;;
21905;SDS011;11117;48.644;9.006;2024-02-28T04:58:02;47.93;;;24.27;;
21905;SDS011;11117;48.644;9.006;2024-02-28T05:00:27;47.90;;;25.07;;
21905;SDS011;11117;48.644;9.006;2024-02-28T05:02:54;48.87;;;25.13;;
21905;SDS011;11117;48.644;9.006;2024-02-28T05:05:20;53.70;;;27.13;;
21905;SDS011;11117;48.644;9.006;2024-02-28T05:07:45;49.97;;;26.83;;
21905;SDS011;11117;48.644;9.006;2024-02-28T05:10:11;49.77;;;25.93;;
21905;SDS011;11117;48.644;9.006;2024-02-28T05:12:36;54.83;;;26.47;;
21905;SDS011;11117;48.644;9.006;2024-02-28T05:15:03;49.27;;;25.30;;
21905;SDS011;11117;48.644;9.006;2024-02-28T05:17:29;52.27;;;26.87;;
21905;SDS011;11117;48.644;9.006;2024-02-28T05:19:55;47.83;;;27.10;;
21905;SDS011;11117;48.644;9.006;2024-02-28T05:22:20;51.33;;;27.00;;
21905;SDS011;11117;48.644;9.006;2024-02-28T05:24:46;53.33;;;25.43;;
21905;SDS011;11117;48.644;9.006;2024-02-28T05:27:12;51.70;;;28.27;;
21905;SDS011;11117;48.644;9.006;2024-02-28T05:29:38;51.70;;;27.10;;
21905;SDS011;11117;48.644;9.006;2024-02-28T05:32:03;51.57;;;24.80;;
21905;SDS011;11117;48.644;9.006;2024-02-28T05:34:29;52.73;;;28.30;;
21905;SDS011;11117;48.644;9.006;2024-02-28T05:36:55;51.97;;;26.97;;
21905;SDS011;11117;48.644;9.006;2024-02-28T05:39:20;53.63;;;27.30;;
21905;SDS011;11117;48.644;9.006;2024-02-28T05:41:46;53.53;;;28.00;;
21905;SDS011;11117;48.644;9.006;2024-02-28T05:44:11;56.33;;;29.63;;
21905;SDS011;11117;48.644;9.006;2024-02-28T05:46:37;58.97;;;29.10;;
21905;SDS011;11117;48.644;9.006;2024-02-28T05:49:03;54.10;;;29.13;;
21905;SDS011;11117;48.644;9.006;2024-02-28T05:51:29;55.30;;;30.10;;
21905;SDS011;11117;48.644;9.006;2024-02-28T05:53:54;54.50;;;28.30;;
21905;SDS011;11117;48.644;9.006;2024-02-28T05:56:20;52.67;;;28.33;;
21905;SDS011;11117;48.644;9.006;2024-02-28T05:58:46;51.23;;;26.90;;
21905;SDS011;11117;48.644;9.006;2024-02-28T06:01:13;46.97;;;25.37;;
21905;SDS011;11117;48.644;9.006;2024-02-28T06:03:40;46.67;;;26.17;;
21905;SDS011;11117;48.644;9.006;2024-02-28T06:06:06;54.70;;;26.93;;
21905;SDS011;11117;48.644;9.006;2024-02-28T06:08:32;53.03;;;28.00;;
21905;SDS011;11117;48.644;9.006;2024-02-28T06:10:59;46.57;;;25.57;;
21905;SDS011;11117;48.644;9.006;2024-02-28T06:13:24;48.07;;;25.13;;
21905;SDS011;11117;48.644;9.006;2024-02-28T06:15:50;47.93;;;25.07;;
21905;SDS011;11117;48.644;9.006;2024-02-28T06:18:15;48.43;;;24.67;;
21905;SDS011;11117;48.644;9.006;2024-02-28T06:20:41;49.13;;;25.67;;
21905;SDS011;11117;48.644;9.006;2024-02-28T06:23:06;50.07;;;24.30;;
21905;SDS011;11117;48.644;9.006;2024-02-28T06:25:36;46.40;;;25.20;;
21905;SDS011;11117;48.644;9.006;2024-02-28T06:28:02;44.30;;;24.27;;
21905;SDS011;11117;48.644;9.006;2024-02-28T06:30:28;46.30;;;24.20;;
21905;SDS011;11117;48.644;9.006;2024-02-28T06:32:53;42.37;;;23.47;;
21905;SDS011;11117;48.644;9.006;2024-02-28T06:35:19;45.23;;;24.27;;
21905;SDS011;11117;48.644;9.006;2024-02-28T06:37:45;45.03;;;25.03;;
21905;SDS011;11117;48.644;9.006;2024-02-28T06:40:10;40.87;;;22.90;;
21905;SDS011;11117;48.644;9.006;2024-02-28T06:42:36;41.57;;;21.67;;
21905;SDS011;11117;48.644;9.006;2024-02-28T06:45:02;37.40;;;21.60;;
21905;SDS011;11117;48.644;9.006;2024-02-28T06:47:28;35.27;;;20.10;;
21905;SDS011;11117;48.644;9.006;2024-02-28T06:49:53;35.67;;;20.27;;
21905;SDS011;11117;48.644;9.006;2024-02-28T06:52:19;35.27;;;20.43;;
21905;SDS011;11117;48.644;9.006;2024-02-28T06:54:44;34.37;;;19.93;;
21905;SDS011;11117;48.644;9.006;2024-02-28T06:57:10;35.87;;;17.80;;
21905;SDS011;11117;48.644;9.006;2024-02-28T06:59:35;32.17;;;18.50;;
21905;SDS011;11117;48.644;9.006;2024-02-28T07:02:01;31.77;;;17.10;;
21905;SDS011;11117;48.644;9.006;2024-02-28T07:04:26;34.47;;;19.20;;
21905;SDS011;11117;48.644;9.006;2024-02-28T07:06:52;36.80;;;19.77;;
21905;SDS011;11117;48.644;9.006;2024-02-28T07:09:17;32.87;;;20.10;;
21905;SDS011;11117;48.644;9.006;2024-02-28T07:11:43;35.73;;;19.17;;
21905;SDS011;11117;48.644;9.006;2024-02-28T07:14:09;33.57;;;17.77;;
21905;SDS011;11117;48.644;9.006;2024-02-28T07:16:34;32.63;;;18.03;;
21905;SDS011;11117;48.644;9.006;2024-02-28T07:19:00;38.37;;;21.87;;
21905;SDS011;11117;48.644;9.006;2024-02-28T07:21:26;58.07;;;34.70;;
21905;SDS011;11117;48.644;9.006;2024-02-28T07:23:51;40.33;;;24.20;;
21905;SDS011;11117;48.644;9.006;2024-02-28T07:26:17;31.10;;;18.30;;
21905;SDS011;11117;48.644;9.006;2024-02-28T07:28:43;34.97;;;18.83;;
21905;SDS011;11117;48.644;9.006;2024-02-28T07:31:15;34.17;;;18.53;;
21905;SDS011;11117;48.644;9.006;2024-02-28T07:33:41;30.57;;;16.60;;
21905;SDS011;11117;48.644;9.006;2024-02-28T07:36:07;30.73;;;17.97;;
21905;SDS011;11117;48.644;9.006;2024-02-28T07:38:32;31.17;;;18.10;;
21905;SDS011;11117;48.644;9.006;2024-02-28T07:40:58;30.13;;;17.83;;
21905;SDS011;11117;48.644;9.006;2024-02-28T07:43:24;30.93;;;18.10;;
21905;SDS011;11117;48.644;9.006;2024-02-28T07:45:49;29.40;;;17.50;;
21905;SDS011;11117;48.644;9.006;2024-02-28T07:48:15;28.60;;;16.77;;
21905;SDS011;11117;48.644;9.006;2024-02-28T07:50:41;31.70;;;18.03;;
21905;SDS011;11117;48.644;9.006;2024-02-28T07:53:06;31.73;;;17.60;;
21905;SDS011;11117;48.644;9.006;2024-02-28T07:55:34;30.27;;;19.13;;
21905;SDS011;11117;48.644;9.006;2024-02-28T07:58:00;32.03;;;18.87;;
21905;SDS011;11117;48.644;9.006;2024-02-28T08:00:25;29.67;;;17.77;;
21905;SDS011;11117;48.644;9.006;2024-02-28T08:02:51;32.13;;;18.30;;
21905;SDS011;11117;48.644;9.006;2024-02-28T08:05:16;30.63;;;18.03;;
21905;SDS011;11117;48.644;9.006;2024-02-28T08:07:42;32.47;;;19.30;;
21905;SDS011;11117;48.644;9.006;2024-02-28T08:10:07;32.63;;;18.13;;
21905;SDS011;11117;48.644;9.006;2024-02-28T08:12:33;29.20;;;17.07;;
21905;SDS011;11117;48.644;9.006;2024-02-28T08:14:59;30.70;;;18.50;;
21905;SDS011;11117;48.644;9.006;2024-02-28T08:17:24;44.93;;;19.17;;
21905;SDS011;11117;48.644;9.006;2024-02-28T08:19:50;29.53;;;17.07;;
21905;SDS011;11117;48.644;9.006;2024-02-28T08:22:16;31.20;;;16.60;;
21905;SDS011;11117;48.644;9.006;2024-02-28T08:24:41;38.23;;;17.77;;
21905;SDS011;11117;48.644;9.006;2024-02-28T08:27:07;31.47;;;17.37;;
21905;SDS011;11117;48.644;9.006;2024-02-28T08:29:32;30.87;;;17.07;;
21905;SDS011;11117;48.644;9.006;2024-02-28T08:31:58;32.03;;;17.93;;
21905;SDS011;11117;48.644;9.006;2024-02-28T08:34:23;31.67;;;17.77;;
21905;SDS011;11117;48.644;9.006;2024-02-28T08:36:49;26.97;;;15.80;;
21905;SDS011;11117;48.644;9.006;2024-02-28T08:39:14;33.60;;;17.00;;
21905;SDS011;11117;48.644;9.006;2024-02-28T08:41:40;29.80;;;17.10;;
21905;SDS011;11117;48.644;9.006;2024-02-28T08:44:06;28.10;;;16.80;;
21905;SDS011;11117;48.644;9.006;2024-02-28T08:46:31;31.00;;;16.43;;
21905;SDS011;11117;48.644;9.006;2024-02-28T08:48:57;29.43;;;17.37;;
21905;SDS011;11117;48.644;9.006;2024-02-28T08:51:22;28.03;;;15.93;;
21905;SDS011;11117;48.644;9.006;2024-02-28T08:53:48;27.20;;;15.83;;
21905;SDS011;11117;48.644;9.006;2024-02-28T08:56:13;26.77;;;16.00;;
21905;SDS011;11117;48.644;9.006;2024-02-28T08:58:39;27.20;;;15.87;;
21905;SDS011;11117;48.644;9.006;2024-02-28T09:01:04;28.30;;;16.23;;
21905;SDS011;11117;48.644;9.006;2024-02-28T09:03:30;26.50;;;15.87;;
21905;SDS011;11117;48.644;9.006;2024-02-28T09:05:56;27.43;;;15.60;;
21905;SDS011;11117;48.644;9.006;2024-02-28T09:08:21;28.47;;;16.17;;
21905;SDS011;11117;48.644;9.006;2024-02-28T09:10:47;28.87;;;15.73;;
21905;SDS011;11117;48.644;9.006;2024-02-28T09:13:12;28.67;;;17.10;;
21905;SDS011;11117;48.644;9.006;2024-02-28T09:15:38;35.97;;;17.23;;
21905;SDS011;11117;48.644;9.006;2024-02-28T09:18:04;26.27;;;16.10;;
21905;SDS011;11117;48.644;9.006;2024-02-28T09:20:30;30.70;;;17.57;;
21905;SDS011;11117;48.644;9.006;2024-02-28T09:22:55;27.70;;;14.80;;
21905;SDS011;11117;48.644;9.006;2024-02-28T09:25:21;27.27;;;16.17;;
21905;SDS011;11117;48.644;9.006;2024-02-28T09:27:47;29.43;;;16.70;;
21905;SDS011;11117;48.644;9.006;2024-02-28T09:30:12;25.77;;;15.97;;
21905;SDS011;11117;48.644;9.006;2024-02-28T09:32:38;25.03;;;15.60;;
21905;SDS011;11117;48.644;9.006;2024-02-28T09:35:04;25.80;;;15.37;;
21905;SDS011;11117;48.644;9.006;2024-02-28T09:37:30;26.33;;;15.60;;
21905;SDS011;11117;48.644;9.006;2024-02-28T09:39:55;25.27;;;15.13;;
21905;SDS011;11117;48.644;9.006;2024-02-28T09:42:21;21.93;;;14.20;;
21905;SDS011;11117;48.644;9.006;2024-02-28T09:44:46;26.33;;;14.30;;
21905;SDS011;11117;48.644;9.006;2024-02-28T09:47:13;21.40;;;14.00;;
21905;SDS011;11117;48.644;9.006;2024-02-28T09:49:38;22.67;;;14.93;;
21905;SDS011;11117;48.644;9.006;2024-02-28T09:52:06;33.63;;;14.93;;
21905;SDS011;11117;48.644;9.006;2024-02-28T09:54:32;22.63;;;14.30;;
21905;SDS011;11117;48.644;9.006;2024-02-28T09:56:57;26.23;;;14.00;;
21905;SDS011;11117;48.644;9.006;2024-02-28T09:59:24;21.43;;;13.33;;
21905;SDS011;11117;48.644;9.006;2024-02-28T10:01:55;20.87;;;13.73;;
21905;SDS011;11117;48.644;9.006;2024-02-28T10:04:22;23.13;;;13.77;;
21905;SDS011;11117;48.644;9.006;2024-02-28T10:06:50;21.50;;;13.80;;
21905;SDS011;11117;48.644;9.006;2024-02-28T10:09:16;20.90;;;13.57;;
21905;SDS011;11117;48.644;9.006;2024-02-28T10:11:41;25.73;;;14.07;;
21905;SDS011;11117;48.644;9.006;2024-02-28T10:14:07;22.50;;;13.70;;
21905;SDS011;11117;48.644;9.006;2024-02-28T10:16:32;21.10;;;13.37;;
21905;SDS011;11117;48.644;9.006;2024-02-28T10:18:58;25.93;;;14.47;;
21905;SDS011;11117;48.644;9.006;2024-02-28T10:21:24;20.77;;;14.30;;
21905;SDS011;11117;48.644;9.006;2024-02-28T10:23:49;21.30;;;14.33;;
21905;SDS011;11117;48.644;9.006;2024-02-28T10:26:15;23.13;;;14.20;;
21905;SDS011;11117;48.644;9.006;2024-02-28T10:28:41;23.63;;;14.70;;
21905;SDS011;11117;48.644;9.006;2024-02-28T10:31:06;20.80;;;14.20;;
21905;SDS011;11117;48.644;9.006;2024-02-28T10:33:32;22.03;;;14.50;;
21905;SDS011;11117;48.644;9.006;2024-02-28T10:35:58;21.47;;;14.47;;
21905;SDS011;11117;48.644;9.006;2024-02-28T10:38:24;22.10;;;13.60;;
21905;SDS011;11117;48.644;9.006;2024-02-28T10:40:51;20.90;;;13.40;;
21905;SDS011;11117;48.644;9.006;2024-02-28T10:43:18;20.37;;;13.33;;
21905;SDS011;11117;48.644;9.006;2024-02-28T10:45:44;19.90;;;13.73;;
21905;SDS011;11117;48.644;9.006;2024-02-28T10:48:10;20.17;;;12.37;;
21905;SDS011;11117;48.644;9.006;2024-02-28T10:50:38;20.73;;;13.37;;
21905;SDS011;11117;48.644;9.006;2024-02-28T10:53:04;17.60;;;12.53;;
21905;SDS011;11117;48.644;9.006;2024-02-28T10:55:39;21.70;;;13.40;;
21905;SDS011;11117;48.644;9.006;2024-02-28T10:58:06;21.93;;;14.50;;
21905;SDS011;11117;48.644;9.006;2024-02-28T11:00:41;26.10;;;13.80;;
21905;SDS011;11117;48.644;9.006;2024-02-28T11:03:07;24.60;;;17.40;;
21905;SDS011;11117;48.644;9.006;2024-02-28T11:05:42;20.90;;;14.63;;
21905;SDS011;11117;48.644;9.006;2024-02-28T11:08:08;20.10;;;14.40;;
21905;SDS011;11117;48.644;9.006;2024-02-28T11:10:41;22.77;;;13.83;;
21905;SDS011;11117;48.644;9.006;2024-02-28T11:13:06;21.07;;;12.87;;
21905;SDS011;11117;48.644;9.006;2024-02-28T11:15:37;17.43;;;12.40;;
21905;SDS011;11117;48.644;9.006;2024-02-28T11:18:07;16.40;;;11.83;;
21905;SDS011;11117;48.644;9.006;2024-02-28T11:20:37;19.13;;;12.80;;
21905;SDS011;11117;48.644;9.006;2024-02-28T11:23:05;19.97;;;13.70;;
21905;SDS011;11117;48.644;9.006;2024-02-28T11:25:56;22.53;;;13.93;;
21905;SDS011;11117;48.644;9.006;2024-02-28T11:28:22;24.73;;;15.30;;
21905;SDS011;11117;48.644;9.006;2024-02-28T11:30:47;19.20;;;13.27;;
21905;SDS011;11117;48.644;9.006;2024-02-28T11:33:13;18.10;;;12.50;;
21905;SDS011;11117;48.644;9.006;2024-02-28T11:35:38;19.93;;;12.60;;
21905;SDS011;11117;48.644;9.006;2024-02-28T11:38:06;20.33;;;13.43;;
21905;SDS011;11117;48.644;9.006;2024-02-28T11:40:34;20.50;;;14.00;;
21905;SDS011;11117;48.644;9.006;2024-02-28T11:42:59;19.33;;;14.03;;
21905;SDS011;11117;48.644;9.006;2024-02-28T11:45:26;19.60;;;13.40;;
21905;SDS011;11117;48.644;9.006;2024-02-28T11:47:51;26.53;;;13.93;;
21905;SDS011;11117;48.644;9.006;2024-02-28T11:50:17;22.30;;;13.37;;
21905;SDS011;11117;48.644;9.006;2024-02-28T11:52:43;19.33;;;12.80;;
21905;SDS011;11117;48.644;9.006;2024-02-28T11:55:08;20.63;;;13.93;;
21905;SDS011;11117;48.644;9.006;2024-02-28T11:57:34;21.80;;;14.13;;
21905;SDS011;11117;48.644;9.006;2024-02-28T12:00:03;27.60;;;15.13;;
21905;SDS011;11117;48.644;9.006;2024-02-28T12:02:30;21.67;;;14.47;;
21905;SDS011;11117;48.644;9.006;2024-02-28T12:04:59;28.70;;;15.07;;
21905;SDS011;11117;48.644;9.006;2024-02-28T12:07:25;23.37;;;13.87;;
21905;SDS011;11117;48.644;9.006;2024-02-28T12:09:51;31.63;;;18.53;;
21905;SDS011;11117;48.644;9.006;2024-02-28T12:12:19;27.47;;;16.33;;
21905;SDS011;11117;48.644;9.006;2024-02-28T12:14:45;24.70;;;15.27;;
21905;SDS011;11117;48.644;9.006;2024-02-28T12:17:11;24.90;;;16.23;;
21905;SDS011;11117;48.644;9.006;2024-02-28T12:19:38;21.90;;;15.40;;
21905;SDS011;11117;48.644;9.006;2024-02-28T12:22:04;24.70;;;15.90;;
21905;SDS011;11117;48.644;9.006;2024-02-28T12:24:29;25.17;;;16.40;;
21905;SDS011;11117;48.644;9.006;2024-02-28T12:26:55;23.27;;;15.37;;
21905;SDS011;11117;48.644;9.006;2024-02-28T12:29:21;28.83;;;16.40;;
21905;SDS011;11117;48.644;9.006;2024-02-28T12:31:46;24.63;;;14.00;;
21905;SDS011;11117;48.644;9.006;2024-02-28T12:34:12;29.37;;;16.47;;
21905;SDS011;11117;48.644;9.006;2024-02-28T12:36:37;26.73;;;16.47;;
21905;SDS011;11117;48.644;9.006;2024-02-28T12:39:08;25.17;;;17.00;;
21905;SDS011;11117;48.644;9.006;2024-02-28T12:41:34;24.03;;;15.33;;
21905;SDS011;11117;48.644;9.006;2024-02-28T12:43:59;24.03;;;14.10;;
21905;SDS011;11117;48.644;9.006;2024-02-28T12:46:25;25.60;;;16.47;;
21905;SDS011;11117;48.644;9.006;2024-02-28T12:48:50;28.43;;;18.10;;
21905;SDS011;11117;48.644;9.006;2024-02-28T12:54:00;30.40;;;17.30;;
21905;SDS011;11117;48.644;9.006;2024-02-28T12:56:26;26.37;;;16.20;;
21905;SDS011;11117;48.644;9.006;2024-02-28T12:58:54;26.10;;;16.93;;
21905;SDS011;11117;48.644;9.006;2024-02-28T13:01:20;27.57;;;17.53;;
21905;SDS011;11117;48.644;9.006;2024-02-28T13:03:46;29.90;;;18.40;;
21905;SDS011;11117;48.644;9.006;2024-02-28T13:06:11;28.83;;;18.13;;
21905;SDS011;11117;48.644;9.006;2024-02-28T13:08:37;29.57;;;17.90;;
21905;SDS011;11117;48.644;9.006;2024-02-28T13:11:02;27.40;;;17.47;;
21905;SDS011;11117;48.644;9.006;2024-02-28T13:13:28;27.20;;;17.63;;
21905;SDS011;11117;48.644;9.006;2024-02-28T13:15:54;34.07;;;19.03;;
21905;SDS011;11117;48.644;9.006;2024-02-28T13:18:19;29.97;;;17.70;;
21905;SDS011;11117;48.644;9.006;2024-02-28T13:20:45;26.93;;;17.27;;
21905;SDS011;11117;48.644;9.006;2024-02-28T13:23:10;29.07;;;16.47;;
21905;SDS011;11117;48.644;9.006;2024-02-28T13:25:36;33.00;;;17.87;;
21905;SDS011;11117;48.644;9.006;2024-02-28T13:28:02;29.80;;;17.77;;
21905;SDS011;11117;48.644;9.006;2024-02-28T13:30:27;32.20;;;19.10;;
21905;SDS011;11117;48.644;9.006;2024-02-28T13:32:53;30.17;;;18.43;;
21905;SDS011;11117;48.644;9.006;2024-02-28T13:35:18;29.33;;;18.33;;
21905;SDS011;11117;48.644;9.006;2024-02-28T13:37:44;32.67;;;18.53;;
21905;SDS011;11117;48.644;9.006;2024-02-28T13:40:10;30.03;;;18.57;;
21905;SDS011;11117;48.644;9.006;2024-02-28T13:42:36;27.70;;;17.40;;
21905;SDS011;11117;48.644;9.006;2024-02-28T13:45:01;29.87;;;17.90;;
21905;SDS011;11117;48.644;9.006;2024-02-28T13:47:27;32.37;;;18.03;;
21905;SDS011;11117;48.644;9.006;2024-02-28T13:49:53;32.27;;;19.20;;
21905;SDS011;11117;48.644;9.006;2024-02-28T13:52:18;27.63;;;17.17;;
21905;SDS011;11117;48.644;9.006;2024-02-28T13:54:44;30.70;;;17.87;;
21905;SDS011;11117;48.644;9.006;2024-02-28T13:57:09;31.27;;;18.57;;
21905;SDS011;11117;48.644;9.006;2024-02-28T13:59:35;31.17;;;18.17;;
21905;SDS011;11117;48.644;9.006;2024-02-28T14:02:00;29.37;;;18.17;;
21905;SDS011;11117;48.644;9.006;2024-02-28T14:04:26;28.03;;;16.57;;
21905;SDS011;11117;48.644;9.006;2024-02-28T14:06:51;30.00;;;17.57;;
21905;SDS011;11117;48.644;9.006;2024-02-28T14:09:17;28.50;;;17.03;;
21905;SDS011;11117;48.644;9.006;2024-02-28T14:11:43;29.97;;;18.43;;
21905;SDS011;11117;48.644;9.006;2024-02-28T14:14:10;31.50;;;17.57;;
21905;SDS011;11117;48.644;9.006;2024-02-28T14:16:35;30.17;;;18.17;;